Time;durP1;ratioP1;P1;durP2;ratioP2;P2;SDS_P1;SDS_P2;PMS_P1;PMS_P2;Temp;Humidity;BMP_temperature;BMP_pressure;BME280_temperature;BME280_humidity;BME280_pressure;Samples;Min_cycle;Max_cycle;Signal;HPM_P1;HPM_P2
2021/09/24 00:09:40;;;;;;;7.63;4.05;;;;;;;;;;21175899;28;20044;-51
2021/09/24 00:19:41;;;;;;;4.72;2.83;;;;;;;;;;21175336;28;20069;-51
2021/09/24 00:29:43;;;;;;;6.97;2.97;;;;;;;;;;21174837;28;20116;-52
2021/09/24 00:39:45;;;;;;;5.47;2.67;;;;;;;;;;21173700;28;20048;-52
2021/09/24 00:49:47;;;;;;;4.43;2.42;;;;;;;;;;21173295;28;20048;-51
2021/09/24 00:59:50;;;;;;;6.15;2.90;;;;;;;;;;21171752;28;20067;-52
2021/09/24 01:09:52;;;;;;;4.03;2.43;;;;;;;;;;21170876;28;20052;-51
2021/09/24 01:19:53;;;;;;;3.22;1.90;;;;;;;;;;21170550;28;20055;-51
2021/09/24 01:29:55;;;;;;;6.28;2.88;;;;;;;;;;21169873;28;20047;-50
2021/09/24 01:39:57;;;;;;;5.20;2.38;;;;;;;;;;21170215;28;20081;-51
2021/09/24 01:50:02;;;;;;;4.85;2.50;;;;;;;;;;21168272;28;20127;-51
2021/09/24 02:00:12;;;;;;;5.15;2.45;;;;;;;;;;21166541;28;20047;-51
2021/09/24 02:10:17;;;;;;;4.47;2.33;;;;;;;;;;21166540;28;20052;-51
2021/09/24 02:20:21;;;;;;;3.95;2.22;;;;;;;;;;21165112;28;20054;-56
2021/09/24 02:30:24;;;;;;;6.82;2.83;;;;;;;;;;21165085;28;20043;-52
2021/09/24 02:40:27;;;;;;;5.87;2.47;;;;;;;;;;21164251;28;20115;-52
2021/09/24 02:50:30;;;;;;;5.15;2.63;;;;;;;;;;21164470;28;20495;-51
2021/09/24 03:00:34;;;;;;;6.18;2.60;;;;;;;;;;21163086;28;20066;-51
2021/09/24 03:10:37;;;;;;;6.87;2.50;;;;;;;;;;21163041;28;20416;-51
2021/09/24 03:20:51;;;;;;;7.05;2.78;;;;;;;;;;21146246;28;20044;-51
2021/09/24 03:30:59;;;;;;;5.88;2.50;;;;;;;;;;21173695;28;20411;-52
2021/09/24 03:41:03;;;;;;;;;;;;;;;;;;21178900;28;20134;-52
2021/09/24 03:51:06;;;;;;;6.85;2.72;;;;;;;;;;21177907;28;20348;-50
2021/09/24 04:01:09;;;;;;;7.65;2.50;;;;;;;;;;21176779;28;20052;-52
2021/09/24 04:11:12;;;;;;;6.60;3.00;;;;;;;;;;21176032;28;20104;-51
2021/09/24 04:21:18;;;;;;;5.00;2.65;;;;;;;;;;21175402;28;20475;-52
2021/09/24 04:31:20;;;;;;;4.05;2.67;;;;;;;;;;21156348;28;20104;-54
2021/09/24 04:41:24;;;;;;;4.97;2.63;;;;;;;;;;21172780;28;20139;-53
2021/09/24 04:51:29;;;;;;;6.38;2.75;;;;;;;;;;21175123;28;20044;-55
2021/09/24 05:01:33;;;;;;;;;;;;;;;;;;21172604;28;20476;-50
2021/09/24 05:11:35;;;;;;;7.72;3.13;;;;;;;;;;21171476;28;20286;-53
2021/09/24 05:21:37;;;;;;;7.75;2.85;;;;;;;;;;21170688;28;20047;-53
2021/09/24 05:31:39;;;;;;;6.82;3.20;;;;;;;;;;21169331;28;20044;-52
2021/09/24 05:41:43;;;;;;;7.55;3.20;;;;;;;;;;21168922;28;20062;-60
2021/09/24 05:51:45;;;;;;;5.63;2.67;;;;;;;;;;21166748;28;20044;-52
2021/09/24 06:01:48;;;;;;;8.65;3.40;;;;;;;;;;21166920;28;20059;-53
2021/09/24 06:11:51;;;;;;;8.52;3.00;;;;;;;;;;21165398;28;20055;-58
2021/09/24 06:21:53;;;;;;;6.78;4.03;;;;;;;;;;21165619;28;20044;-54
2021/09/24 06:31:55;;;;;;;8.45;3.78;;;;;;;;;;21164288;28;20425;-52
2021/09/24 06:41:57;;;;;;;8.50;3.50;;;;;;;;;;21163894;28;20044;-53
2021/09/24 06:52:00;;;;;;;9.57;3.43;;;;;;;;;;21163568;28;20093;-53
2021/09/24 07:02:02;;;;;;;12.10;3.50;;;;;;;;;;21162125;28;20056;-60
2021/09/24 07:12:07;;;;;;;12.27;3.55;;;;;;;;;;21162382;28;20110;-60
2021/09/24 07:22:10;;;;;;;13.05;3.72;;;;;;;;;;21162073;28;20051;-58
2021/09/24 07:32:12;;;;;;;9.05;3.55;;;;;;;;;;21162109;28;20116;-59
2021/09/24 07:42:14;;;;;;;10.70;3.45;;;;;;;;;;21161324;28;20051;-56
2021/09/24 07:52:18;;;;;;;;;;;;;;;;;;21155822;28;20063;-50
2021/09/24 08:02:20;;;;;;;10.70;3.42;;;;;;;;;;21126447;28;20379;-54
2021/09/24 08:12:24;;;;;;;12.73;3.97;;;;;;;;;;21117849;28;20081;-52
2021/09/24 08:22:26;;;;;;;17.45;5.00;;;;;;;;;;21124302;28;20478;-57
2021/09/24 08:32:30;;;;;;;11.10;4.07;;;;;;;;;;21126606;28;20480;-62
2021/09/24 08:42:37;;;;;;;20.48;4.22;;;;;;;;;;21137298;28;20082;-56
2021/09/24 08:52:39;;;;;;;19.20;5.05;;;;;;;;;;21134715;28;20052;-54
2021/09/24 09:02:59;;;;;;;13.93;4.87;;;;;;;;;;21110448;27;20078;-55
2021/09/24 09:13:10;;;;;;;16.95;4.35;;;;;;;;;;21095872;28;20048;-54
2021/09/24 09:23:13;;;;;;;12.32;3.70;;;;;;;;;;21136535;28;20058;-57
2021/09/24 09:33:17;;;;;;;14.97;4.03;;;;;;;;;;21164774;28;20342;-58
2021/09/24 09:43:30;;;;;;;14.98;4.22;;;;;;;;;;21168585;28;20049;-58
2021/09/24 09:53:33;;;;;;;16.35;3.53;;;;;;;;;;21168484;28;20051;-57
2021/09/24 10:03:34;;;;;;;12.90;3.50;;;;;;;;;;21166534;28;20117;-56
2021/09/24 10:13:50;;;;;;;11.98;3.83;;;;;;;;;;21166072;28;20059;-55
2021/09/24 10:23:53;;;;;;;18.83;6.47;;;;;;;;;;21170969;28;20396;-57
2021/09/24 10:34:03;;;;;;;21.92;8.73;;;;;;;;;;21165359;28;20050;-56
2021/09/24 10:44:06;;;;;;;13.65;3.75;;;;;;;;;;21162990;28;20079;-58
2021/09/24 10:54:16;;;;;;;13.40;3.90;;;;;;;;;;21163421;28;20142;-58
2021/09/24 11:04:20;;;;;;;15.45;4.13;;;;;;;;;;21162007;28;20058;-53
2021/09/24 11:14:22;;;;;;;;;;;;;;;;;;21162486;28;20050;-53
2021/09/24 11:24:27;;;;;;;17.60;4.50;;;;;;;;;;21162960;28;20007;-52
2021/09/24 11:34:37;;;;;;;15.13;4.43;;;;;;;;;;21162011;28;20171;-54
2021/09/24 11:44:45;;;;;;;19.02;5.75;;;;;;;;;;21161481;28;20349;-52
2021/09/24 11:54:48;;;;;;;15.15;4.63;;;;;;;;;;21167960;28;20047;-53
2021/09/24 12:05:01;;;;;;;16.50;3.80;;;;;;;;;;21176042;28;20526;-60
2021/09/24 12:15:05;;;;;;;16.75;5.10;;;;;;;;;;21157608;28;20783;-61
2021/09/24 12:25:14;;;;;;;20.27;4.40;;;;;;;;;;21156734;28;20040;-53
2021/09/24 12:35:20;;;;;;;24.90;5.95;;;;;;;;;;21174613;28;20047;-57
2021/09/24 12:45:24;;;;;;;22.58;5.60;;;;;;;;;;21172861;28;20043;-60
2021/09/24 12:55:27;;;;;;;15.40;4.40;;;;;;;;;;21172342;28;20076;-60
2021/09/24 13:05:29;;;;;;;;;;;;;;;;;;21171138;28;20143;-52
2021/09/24 13:15:34;;;;;;;18.60;4.87;;;;;;;;;;21152945;28;19923;-53
2021/09/24 13:25:37;;;;;;;17.92;4.88;;;;;;;;;;21170250;28;20043;-53
2021/09/24 13:35:40;;;;;;;20.42;5.03;;;;;;;;;;21168725;28;20059;-51
2021/09/24 13:45:44;;;;;;;29.95;6.45;;;;;;;;;;21168785;28;20044;-53
2021/09/24 13:55:47;;;;;;;21.17;6.15;;;;;;;;;;21167540;28;20051;-52
2021/09/24 14:05:50;;;;;;;;;;;;;;;;;;21166405;28;20453;-59
2021/09/24 14:15:54;;;;;;;9.02;4.00;;;;;;;;;;21164575;28;20018;-59
2021/09/24 14:25:56;;;;;;;19.17;6.00;;;;;;;;;;21164749;28;20050;-53
2021/09/24 14:35:58;;;;;;;16.73;6.40;;;;;;;;;;21163393;28;20059;-56
2021/09/24 14:46:00;;;;;;;22.38;7.20;;;;;;;;;;21164638;28;20051;-54
2021/09/24 14:56:02;;;;;;;7.83;2.83;;;;;;;;;;21162887;28;20086;-60
2021/09/24 15:06:04;;;;;;;8.57;2.80;;;;;;;;;;21162547;28;20135;-53
2021/09/24 15:16:07;;;;;;;6.67;3.00;;;;;;;;;;21143392;28;20052;-52
2021/09/24 15:26:08;;;;;;;8.30;2.93;;;;;;;;;;21171321;28;20048;-52
2021/09/24 15:36:11;;;;;;;12.33;3.43;;;;;;;;;;21179051;28;20051;-57
2021/09/24 15:46:13;;;;;;;5.78;2.45;;;;;;;;;;21177510;28;20047;-53
2021/09/24 15:56:15;;;;;;;6.22;2.92;;;;;;;;;;21176991;28;20044;-59
2021/09/24 16:06:18;;;;;;;;;;;;;;;;;;21175899;28;20127;-59
2021/09/24 16:16:21;;;;;;;9.30;3.50;;;;;;;;;;21175948;28;19924;-53
2021/09/24 16:26:23;;;;;;;9.50;3.50;;;;;;;;;;21174641;28;20051;-57
2021/09/24 16:36:25;;;;;;;9.93;3.63;;;;;;;;;;21172395;28;20055;-54
2021/09/24 16:46:27;;;;;;;8.35;4.13;;;;;;;;;;21172502;28;20047;-51
2021/09/24 16:56:29;;;;;;;10.05;4.30;;;;;;;;;;21172301;28;20058;-58
2021/09/24 17:06:31;;;;;;;8.17;3.90;;;;;;;;;;21171161;28;20062;-52
2021/09/24 17:16:33;;;;;;;10.83;3.63;;;;;;;;;;21170259;28;20127;-52
2021/09/24 17:26:35;;;;;;;13.03;4.63;;;;;;;;;;21169375;28;20445;-59
2021/09/24 17:36:38;;;;;;;10.57;4.17;;;;;;;;;;21167326;28;20058;-58
2021/09/24 17:46:40;;;;;;;11.93;5.35;;;;;;;;;;21148818;28;20044;-52
2021/09/24 17:56:42;;;;;;;8.63;4.40;;;;;;;;;;21167283;28;20508;-52
2021/09/24 18:06:44;;;;;;;13.00;4.50;;;;;;;;;;21166758;28;20534;-52
2021/09/24 18:16:47;;;;;;;5.50;4.03;;;;;;;;;;21166374;28;20403;-51
2021/09/24 18:26:50;;;;;;;11.15;5.43;;;;;;;;;;21165372;28;20441;-60
2021/09/24 18:36:52;;;;;;;8.83;5.33;;;;;;;;;;21163797;28;20047;-53
2021/09/24 18:46:54;;;;;;;9.98;4.07;;;;;;;;;;21163363;28;20049;-63
2021/09/24 18:56:56;;;;;;;10.55;4.10;;;;;;;;;;21162467;28;20487;-53
2021/09/24 19:06:58;;;;;;;10.80;4.70;;;;;;;;;;21162413;28;20040;-52
2021/09/24 19:17:00;;;;;;;14.68;5.25;;;;;;;;;;21161596;28;20087;-57
2021/09/24 19:27:02;;;;;;;11.95;5.05;;;;;;;;;;21162078;28;20508;-58
2021/09/24 19:37:04;;;;;;;17.58;6.13;;;;;;;;;;21161705;28;20050;-56
2021/09/24 19:47:06;;;;;;;12.55;6.03;;;;;;;;;;21161842;28;20055;-56
2021/09/24 19:57:08;;;;;;;13.85;5.43;;;;;;;;;;21160740;28;20511;-56
2021/09/24 20:07:10;;;;;;;15.30;7.10;;;;;;;;;;21160773;28;20067;-61
2021/09/24 20:17:11;;;;;;;15.45;7.03;;;;;;;;;;21175010;28;20062;-52
2021/09/24 20:27:13;;;;;;;14.50;5.93;;;;;;;;;;21175226;28;20039;-59
2021/09/24 20:37:15;;;;;;;12.93;5.53;;;;;;;;;;21173758;28;20065;-62
2021/09/24 20:47:17;;;;;;;16.92;7.22;;;;;;;;;;21173713;28;20472;-61
2021/09/24 20:57:19;;;;;;;16.23;6.95;;;;;;;;;;21172664;28;20058;-62
2021/09/24 21:07:21;;;;;;;15.77;7.03;;;;;;;;;;21172342;28;20100;-57
2021/09/24 21:17:23;;;;;;;16.98;8.00;;;;;;;;;;21171387;28;20047;-58
2021/09/24 21:27:26;;;;;;;14.82;6.75;;;;;;;;;;21170789;28;20047;-54
2021/09/24 21:37:28;;;;;;;23.50;9.63;;;;;;;;;;21169383;28;20047;-58
2021/09/24 21:47:30;;;;;;;25.23;9.43;;;;;;;;;;21169010;28;20070;-53
2021/09/24 21:57:33;;;;;;;18.93;8.93;;;;;;;;;;21167960;28;20059;-53
2021/09/24 22:07:34;;;;;;;19.50;10.10;;;;;;;;;;21167087;28;20071;-62
2021/09/24 22:17:37;;;;;;;23.58;11.57;;;;;;;;;;21166381;28;20051;-60
2021/09/24 22:27:39;;;;;;;22.77;12.02;;;;;;;;;;21166874;28;20509;-52
2021/09/24 22:37:41;;;;;;;18.55;11.07;;;;;;;;;;21164228;28;20225;-52
2021/09/24 22:47:44;;;;;;;20.93;11.30;;;;;;;;;;21164177;28;20047;-53
2021/09/24 22:57:46;;;;;;;20.15;11.65;;;;;;;;;;21163705;28;20051;-54
2021/09/24 23:07:48;;;;;;;19.33;11.95;;;;;;;;;;21163515;28;20487;-60
2021/09/24 23:17:50;;;;;;;21.58;12.55;;;;;;;;;;21162856;28;20044;-58
2021/09/24 23:27:52;;;;;;;25.13;12.70;;;;;;;;;;21161687;28;20087;-58
2021/09/24 23:37:53;;;;;;;22.95;10.70;;;;;;;;;;21161622;28;20546;-59
2021/09/24 23:47:55;;;;;;;13.77;9.60;;;;;;;;;;21171911;28;20044;-61
2021/09/24 23:57:57;;;;;;;19.75;10.15;;;;;;;;;;21170014;28;20059;-60
